createdAt,value
2017-09-12T04:50:24.747Z,0
2017-09-12T04:51:32.799Z,0
2017-09-12T04:52:40.878Z,0
2017-09-12T04:53:48.965Z,0
2017-09-12T04:54:57.048Z,0
2017-09-12T04:56:05.132Z,0
2017-09-12T04:57:13.217Z,0
2017-09-12T04:58:21.302Z,0
2017-09-12T04:59:29.389Z,0
2017-09-12T05:00:37.471Z,0
2017-09-12T05:01:45.548Z,0
2017-09-12T05:02:53.638Z,0
2017-09-12T05:04:01.722Z,0
2017-09-12T05:05:09.804Z,0
2017-09-12T05:06:17.890Z,0
2017-09-12T05:07:25.975Z,0
2017-09-12T05:08:34.062Z,0
2017-09-12T05:09:42.143Z,0
2017-09-12T05:10:50.232Z,0
2017-09-12T05:11:58.315Z,0
2017-09-12T05:13:06.398Z,0
2017-09-12T05:14:14.485Z,0
2017-09-12T05:15:22.571Z,0
2017-09-12T05:16:30.654Z,0
2017-09-12T05:17:38.796Z,0
2017-09-12T05:18:46.820Z,0
2017-09-12T05:19:54.910Z,0
2017-09-12T05:21:02.989Z,4
2017-09-12T05:22:11.074Z,0
2017-09-12T05:23:19.262Z,0
2017-09-12T05:24:27.246Z,0
2017-09-12T05:25:35.338Z,0
2017-09-12T05:26:43.422Z,4
2017-09-12T05:27:51.508Z,0
2017-09-12T05:28:59.609Z,0
2017-09-12T05:30:07.692Z,4
2017-09-12T05:31:15.780Z,0
2017-09-12T05:32:23.861Z,4
2017-09-12T05:33:31.946Z,4
2017-09-12T05:34:40.032Z,4
2017-09-12T05:35:48.111Z,4
2017-09-12T05:36:56.198Z,4
2017-09-12T05:38:04.285Z,0
2017-09-12T05:39:12.370Z,4
2017-09-12T05:40:20.454Z,0
2017-09-12T05:41:28.538Z,0
2017-09-12T05:42:36.639Z,0
2017-09-12T05:43:44.713Z,4
2017-09-12T05:44:52.799Z,0
2017-09-12T05:46:00.883Z,0
2017-09-12T05:47:08.969Z,0
2017-09-12T05:48:17.053Z,0
2017-09-12T05:49:25.138Z,4
2017-09-12T05:50:33.223Z,0
2017-09-12T05:51:41.307Z,4
2017-09-12T05:52:49.390Z,0
2017-09-12T05:53:57.475Z,4
2017-09-12T05:55:05.568Z,4
2017-09-12T05:56:13.654Z,4
2017-09-12T05:57:21.750Z,0
2017-09-12T05:58:29.828Z,0
2017-09-12T05:59:37.913Z,4
2017-09-12T06:00:45.997Z,4
2017-09-12T06:01:54.082Z,4
2017-09-12T06:03:02.167Z,0
2017-09-12T06:04:10.254Z,4
2017-09-12T06:05:18.337Z,4
2017-09-12T06:06:26.422Z,4
2017-09-12T06:07:34.533Z,4
2017-09-12T06:08:42.593Z,8
2017-09-12T06:09:50.678Z,4
2017-09-12T06:10:58.762Z,4
2017-09-12T06:12:06.845Z,4
2017-09-12T06:13:14.948Z,4
2017-09-12T06:14:23.013Z,8
2017-09-12T06:15:31.100Z,4
2017-09-12T06:16:39.184Z,4
2017-09-12T06:17:47.270Z,4
2017-09-12T06:18:55.355Z,4
2017-09-12T06:20:03.439Z,4
2017-09-12T06:21:11.537Z,4
2017-09-12T06:22:19.616Z,4
2017-09-12T06:23:27.707Z,4
2017-09-12T06:24:35.802Z,4
2017-09-12T06:25:43.869Z,4
2017-09-12T06:26:51.959Z,4
2017-09-12T06:28:00.043Z,4
2017-09-12T06:29:08.128Z,4
2017-09-12T06:30:16.214Z,8
2017-09-12T06:31:24.303Z,8
2017-09-12T06:32:32.384Z,8
2017-09-12T06:33:40.467Z,8
2017-09-12T06:34:48.552Z,8
2017-09-12T06:35:56.634Z,8
2017-09-12T06:37:04.718Z,8
2017-09-12T06:38:12.805Z,12
2017-09-12T06:39:20.889Z,8
2017-09-12T06:40:28.974Z,12
2017-09-12T06:41:37.059Z,12
2017-09-12T06:42:45.143Z,16
2017-09-12T06:43:53.228Z,16
2017-09-12T06:45:01.310Z,16
2017-09-12T06:46:09.397Z,12
2017-09-12T06:47:17.480Z,12
2017-09-12T06:48:25.587Z,12
2017-09-12T06:49:33.648Z,12
2017-09-12T06:50:41.751Z,12
2017-09-12T06:51:49.819Z,12
2017-09-12T06:52:57.905Z,12
2017-09-12T06:54:05.990Z,8
2017-09-12T06:55:14.072Z,8
2017-09-12T06:56:22.156Z,12
2017-09-12T06:57:30.240Z,8
2017-09-12T06:58:38.328Z,12
2017-09-12T06:59:46.410Z,8
2017-09-12T07:00:54.493Z,8
2017-09-12T07:02:02.581Z,8
2017-09-12T07:03:10.664Z,4
2017-09-12T07:04:18.748Z,8
2017-09-12T07:05:26.864Z,8
2017-09-12T07:06:34.970Z,4
2017-09-12T07:07:43.002Z,8
2017-09-12T07:08:51.085Z,8
2017-09-12T07:09:59.171Z,12
2017-09-12T07:11:07.259Z,8
2017-09-12T07:12:15.339Z,8
2017-09-12T07:13:23.424Z,8
2017-09-12T07:14:31.509Z,8
2017-09-12T07:15:39.605Z,8
2017-09-12T07:16:47.691Z,8
2017-09-12T07:17:55.796Z,8
2017-09-12T07:19:03.859Z,8
2017-09-12T07:20:11.945Z,16
2017-09-12T07:21:20.028Z,20
2017-09-12T07:22:28.113Z,20
2017-09-12T07:23:36.196Z,24
2017-09-12T07:24:44.285Z,20
2017-09-12T07:25:52.371Z,12
2017-09-12T07:27:00.450Z,8
2017-09-12T07:28:08.535Z,4
2017-09-12T07:29:16.623Z,8
2017-09-12T07:30:24.721Z,4
2017-09-12T07:31:32.788Z,8
2017-09-12T07:32:40.888Z,4
2017-09-12T07:33:48.955Z,4
2017-09-12T07:34:57.041Z,8
2017-09-12T07:36:05.124Z,8
2017-09-12T07:37:13.208Z,8
2017-09-12T07:38:21.294Z,8
2017-09-12T07:39:29.378Z,8
2017-09-12T07:40:37.467Z,8
2017-09-12T07:41:45.560Z,8
2017-09-12T07:42:53.639Z,8
2017-09-12T07:44:01.725Z,4
2017-09-12T07:45:09.809Z,8
2017-09-12T07:46:17.894Z,4
2017-09-12T07:47:25.981Z,8
2017-09-12T07:48:34.062Z,4
2017-09-12T07:49:42.145Z,4
2017-09-12T07:50:50.233Z,8
2017-09-12T07:51:58.313Z,8
2017-09-12T07:53:06.400Z,8
2017-09-12T07:54:14.485Z,8
2017-09-12T07:55:22.574Z,12
2017-09-12T07:56:30.654Z,4
2017-09-12T07:57:38.740Z,4
2017-09-12T07:58:46.822Z,8
2017-09-12T07:59:54.930Z,8
2017-09-12T08:01:02.991Z,8
2017-09-12T08:02:11.077Z,8
2017-09-12T08:03:19.161Z,8
2017-09-12T08:04:27.246Z,8
2017-09-12T08:05:35.335Z,8
2017-09-12T08:06:43.418Z,8
2017-09-12T08:07:51.504Z,8
2017-09-12T08:08:59.587Z,8
2017-09-12T08:10:07.671Z,8
2017-09-12T08:11:15.768Z,8
2017-09-12T08:12:23.849Z,8
2017-09-12T08:13:31.933Z,8
2017-09-12T08:14:40.016Z,8
2017-09-12T08:15:48.100Z,8
2017-09-12T08:16:56.185Z,4
2017-09-12T08:18:04.271Z,8
2017-09-12T08:19:12.355Z,8
2017-09-12T08:20:20.440Z,12
2017-09-12T08:21:28.545Z,8
2017-09-12T08:22:36.683Z,12
2017-09-12T08:23:44.703Z,12
2017-09-12T08:24:52.783Z,12
2017-09-12T08:26:00.868Z,12
2017-09-12T08:27:08.953Z,8
2017-09-12T08:28:17.036Z,4
2017-09-12T08:29:25.124Z,4
2017-09-12T08:30:33.205Z,4
2017-09-12T08:31:41.288Z,4
2017-09-12T08:32:49.377Z,4
2017-09-12T08:33:57.457Z,8
2017-09-12T08:35:05.561Z,8
2017-09-12T08:36:13.629Z,8
2017-09-12T08:37:21.717Z,4
2017-09-12T08:38:29.798Z,4
2017-09-12T08:39:37.879Z,4
2017-09-12T08:40:45.965Z,8
2017-09-12T08:41:54.048Z,4
2017-09-12T08:43:02.136Z,12
2017-09-12T08:44:10.225Z,12
2017-09-12T08:45:18.307Z,8
2017-09-12T08:46:26.389Z,8
2017-09-12T08:47:34.477Z,8
2017-09-12T08:48:42.560Z,8
2017-09-12T08:49:50.650Z,12
2017-09-12T08:50:58.729Z,8
2017-09-12T08:52:06.855Z,8
2017-09-12T08:53:14.903Z,12
2017-09-12T08:54:22.978Z,8
2017-09-12T08:55:31.080Z,8
2017-09-12T08:56:39.149Z,8
2017-09-12T08:57:47.233Z,8
2017-09-12T08:58:55.318Z,8
2017-09-12T09:00:03.409Z,8
2017-09-12T09:01:11.492Z,8
2017-09-12T09:02:19.624Z,8
2017-09-12T09:03:27.654Z,8
2017-09-12T09:04:35.741Z,8
2017-09-12T09:05:43.824Z,8
2017-09-12T09:06:51.910Z,12
2017-09-12T09:07:59.993Z,16
2017-09-12T09:09:08.083Z,12
2017-09-12T09:10:16.165Z,12
2017-09-12T09:11:24.249Z,12
2017-09-12T09:12:32.332Z,12
2017-09-12T09:13:40.417Z,12
2017-09-12T09:14:48.503Z,16
2017-09-12T09:15:56.585Z,12
2017-09-12T09:17:04.676Z,12
2017-09-12T09:18:12.757Z,12
2017-09-12T09:19:20.842Z,8
2017-09-12T09:20:28.946Z,8
2017-09-12T09:21:37.017Z,12
2017-09-12T09:22:45.104Z,12
2017-09-12T09:23:53.187Z,12
2017-09-12T09:25:01.272Z,12
2017-09-12T09:26:09.356Z,12
2017-09-12T09:27:17.439Z,16
2017-09-12T09:28:25.525Z,12
2017-09-12T09:29:33.605Z,12
2017-09-12T09:30:41.742Z,8
2017-09-12T09:31:49.793Z,8
2017-09-12T09:32:57.862Z,8
2017-09-12T09:34:05.947Z,8
2017-09-12T09:35:14.031Z,12
2017-09-12T09:36:22.114Z,12
2017-09-12T09:37:30.200Z,16
2017-09-12T09:38:38.282Z,12
2017-09-12T09:39:46.366Z,12
2017-09-12T09:40:54.452Z,12
2017-09-12T09:42:02.572Z,12
2017-09-12T09:43:10.622Z,12
2017-09-12T09:44:18.708Z,16
2017-09-12T09:45:26.812Z,12
2017-09-12T09:46:34.876Z,16
2017-09-12T09:47:42.960Z,32
2017-09-12T09:48:51.045Z,16
2017-09-12T09:49:59.129Z,16
2017-09-12T09:51:07.214Z,20
2017-09-12T09:52:15.298Z,16
2017-09-12T09:53:23.381Z,12
2017-09-12T09:54:31.476Z,12
2017-09-12T09:55:39.569Z,8
2017-09-12T09:56:47.642Z,12
2017-09-12T09:57:55.730Z,20
2017-09-12T09:59:03.812Z,8
2017-09-12T10:00:11.907Z,12
2017-09-12T10:01:19.994Z,12
2017-09-12T10:02:28.078Z,8
2017-09-12T10:03:36.163Z,12
2017-09-12T10:04:44.245Z,8
2017-09-12T10:05:52.329Z,8
2017-09-12T10:07:00.413Z,12
2017-09-12T10:08:08.498Z,12
2017-09-12T10:09:16.583Z,20
2017-09-12T10:10:24.670Z,16
2017-09-12T10:11:32.754Z,36
2017-09-12T10:12:40.837Z,20
2017-09-12T10:13:48.922Z,16
2017-09-12T10:14:57.005Z,16
2017-09-12T10:16:05.087Z,16
2017-09-12T10:17:13.175Z,12
2017-09-12T10:18:21.256Z,8
2017-09-12T10:19:29.343Z,8
2017-09-12T10:20:37.426Z,12
2017-09-12T10:21:45.517Z,12
2017-09-12T10:22:53.598Z,16
2017-09-12T10:24:01.680Z,24
2017-09-12T10:25:09.762Z,28
2017-09-12T10:26:17.849Z,32
2017-09-12T10:27:25.940Z,28
2017-09-12T10:28:34.022Z,16
2017-09-12T10:29:42.109Z,12
2017-09-12T10:30:50.190Z,12
2017-09-12T10:31:58.276Z,12
2017-09-12T10:33:06.405Z,8
2017-09-12T10:34:14.444Z,8
2017-09-12T10:35:22.534Z,8
2017-09-12T10:36:30.615Z,8
2017-09-12T10:37:38.698Z,8
2017-09-12T10:38:46.783Z,8
2017-09-12T10:39:54.875Z,8
2017-09-12T10:41:02.952Z,8
2017-09-12T10:42:11.036Z,8
2017-09-12T10:43:19.127Z,8
2017-09-12T10:44:27.212Z,8
2017-09-12T10:45:35.297Z,12
2017-09-12T10:46:43.403Z,16
2017-09-12T10:47:51.466Z,12
2017-09-12T10:48:59.552Z,36
2017-09-12T10:50:07.642Z,24
2017-09-12T10:51:15.721Z,32
2017-09-12T10:52:23.806Z,16
2017-09-12T10:53:31.991Z,12
2017-09-12T10:54:40.075Z,20
2017-09-12T10:55:48.159Z,16
2017-09-12T10:56:56.244Z,12
2017-09-12T10:58:04.331Z,16
2017-09-12T10:59:12.413Z,12
2017-09-12T11:00:20.496Z,20
2017-09-12T11:01:28.587Z,16
2017-09-12T11:02:36.665Z,32
2017-09-12T11:03:44.785Z,28
2017-09-12T11:04:52.845Z,28
2017-09-12T11:06:00.928Z,28
2017-09-12T11:07:09.015Z,32
2017-09-12T11:08:17.099Z,28
2017-09-12T11:09:25.181Z,28
2017-09-12T11:10:33.268Z,28
2017-09-12T11:11:41.353Z,12
2017-09-12T11:12:49.436Z,12
2017-09-12T11:13:57.540Z,12
2017-09-12T11:15:05.607Z,12
2017-09-12T11:16:13.691Z,12
2017-09-12T11:17:21.783Z,12
2017-09-12T11:18:29.862Z,28
2017-09-12T11:19:37.950Z,16
2017-09-12T11:20:46.032Z,8
2017-09-12T11:21:54.116Z,4
2017-09-12T11:23:02.201Z,8
2017-09-12T11:24:10.288Z,8
2017-09-12T11:25:18.368Z,20
2017-09-12T11:26:26.456Z,8
2017-09-12T11:27:34.542Z,12
2017-09-12T11:28:42.626Z,8
2017-09-12T11:29:50.708Z,8
2017-09-12T11:30:58.806Z,8
2017-09-12T11:32:06.888Z,8
2017-09-12T11:33:14.971Z,8
2017-09-12T11:34:23.058Z,8
2017-09-12T11:35:31.141Z,8
2017-09-12T11:36:39.227Z,8
2017-09-12T11:37:47.311Z,8
2017-09-12T11:38:55.396Z,8
2017-09-12T11:40:03.482Z,24
2017-09-12T11:41:11.570Z,8
2017-09-12T11:42:19.650Z,12
2017-09-12T11:43:27.733Z,12
2017-09-12T11:44:35.819Z,12
2017-09-12T11:45:43.903Z,12
2017-09-12T11:46:51.989Z,16
2017-09-12T11:48:00.127Z,12
2017-09-12T11:49:08.206Z,8
2017-09-12T11:50:16.291Z,8
2017-09-12T11:51:24.378Z,8
2017-09-12T11:52:32.555Z,8
2017-09-12T11:53:40.548Z,8
2017-09-12T11:54:48.627Z,4
2017-09-12T11:55:56.725Z,8
2017-09-12T11:57:04.801Z,8
2017-09-12T11:58:12.884Z,8
2017-09-12T11:59:20.981Z,4
2017-09-12T12:00:29.053Z,8
2017-09-12T12:01:37.196Z,4
2017-09-12T12:02:45.222Z,8
2017-09-12T12:03:53.309Z,8
2017-09-12T12:05:01.392Z,8
2017-09-12T12:06:09.478Z,8
2017-09-12T12:07:17.567Z,8
2017-09-12T12:08:25.651Z,8
2017-09-12T12:09:33.730Z,12
2017-09-12T12:10:41.812Z,12
2017-09-12T12:11:49.898Z,12
2017-09-12T12:12:57.983Z,12
2017-09-12T12:14:06.069Z,12
2017-09-12T12:15:14.152Z,12
2017-09-12T12:16:22.237Z,24
2017-09-12T12:17:30.322Z,12
2017-09-12T12:18:38.405Z,12
2017-09-12T12:19:46.489Z,12
2017-09-12T12:20:54.592Z,12
2017-09-12T12:22:02.659Z,12
2017-09-12T12:23:10.743Z,8
2017-09-12T12:24:18.827Z,12
2017-09-12T12:25:26.917Z,8
2017-09-12T12:26:34.999Z,8
2017-09-12T12:27:43.085Z,8
2017-09-12T12:28:51.168Z,4
2017-09-12T12:29:59.250Z,8
2017-09-12T12:31:07.333Z,8
2017-09-12T12:32:15.420Z,4
2017-09-12T12:33:23.506Z,4
2017-09-12T12:34:31.592Z,4
2017-09-12T12:35:39.678Z,4
2017-09-12T12:36:47.763Z,4
2017-09-12T12:37:55.862Z,4
2017-09-12T12:39:03.948Z,4
2017-09-12T12:40:12.037Z,4
2017-09-12T12:41:20.130Z,4
2017-09-12T12:42:28.211Z,8
2017-09-12T12:43:36.293Z,12
2017-09-12T12:44:44.378Z,12
2017-09-12T12:45:52.464Z,12
2017-09-12T12:47:00.566Z,16
2017-09-12T12:48:08.650Z,24
2017-09-12T12:49:16.733Z,16
2017-09-12T12:50:24.818Z,16
2017-09-12T12:51:32.904Z,12
2017-09-12T12:52:40.988Z,20
2017-09-12T12:53:49.072Z,12
2017-09-12T12:54:57.163Z,8
2017-09-12T12:56:05.252Z,12
2017-09-12T12:57:13.338Z,8
2017-09-12T12:58:21.421Z,8
2017-09-12T12:59:29.511Z,8
2017-09-12T13:00:37.592Z,8
2017-09-12T13:01:45.681Z,8
2017-09-12T13:02:53.761Z,4
2017-09-12T13:04:01.846Z,4
2017-09-12T13:05:09.934Z,4
2017-09-12T13:06:18.023Z,4
2017-09-12T13:07:26.098Z,4
2017-09-12T13:08:34.182Z,4
2017-09-12T13:09:42.270Z,4
2017-09-12T13:10:50.354Z,4
2017-09-12T13:11:58.439Z,4
2017-09-12T13:13:06.522Z,4
2017-09-12T13:14:14.610Z,4
2017-09-12T13:15:22.702Z,0
2017-09-12T13:16:30.830Z,4
2017-09-12T13:17:38.865Z,4
2017-09-12T13:18:46.962Z,4
2017-09-12T13:19:55.033Z,4
2017-09-12T13:21:03.127Z,4
2017-09-12T13:22:11.211Z,8
2017-09-12T13:23:19.297Z,8
2017-09-12T13:24:27.382Z,12
2017-09-12T13:25:35.464Z,16
2017-09-12T13:26:43.551Z,20
2017-09-12T13:27:51.639Z,20
2017-09-12T13:28:59.718Z,20
2017-09-12T13:30:07.813Z,20
2017-09-12T13:31:15.918Z,16
2017-09-12T13:32:23.982Z,20
2017-09-12T13:33:32.066Z,12
2017-09-12T13:34:40.150Z,12
2017-09-12T13:35:48.235Z,8
2017-09-12T13:36:56.323Z,16
2017-09-12T13:38:04.404Z,16
2017-09-12T13:39:12.492Z,16
2017-09-12T13:40:20.573Z,16
2017-09-12T13:41:28.672Z,16
2017-09-12T13:42:36.763Z,16
2017-09-12T13:43:44.842Z,12
2017-09-12T13:44:52.923Z,8
2017-09-12T13:46:01.010Z,16
2017-09-12T13:47:09.093Z,20
2017-09-12T13:48:17.184Z,16
2017-09-12T13:49:25.262Z,8
2017-09-12T13:50:33.349Z,20
2017-09-12T13:51:41.438Z,16
2017-09-12T13:52:49.536Z,20
2017-09-12T13:53:57.602Z,16
2017-09-12T13:55:05.688Z,20
2017-09-12T13:56:13.782Z,16
2017-09-12T13:57:21.873Z,16
2017-09-12T13:58:29.953Z,20
2017-09-12T13:59:38.035Z,16
2017-09-12T14:00:46.119Z,16
2017-09-12T14:01:54.205Z,16
2017-09-12T14:03:02.291Z,16
2017-09-12T14:04:10.376Z,12
2017-09-12T14:05:18.460Z,16
2017-09-12T14:06:26.638Z,16
2017-09-12T14:07:34.722Z,16
2017-09-12T14:08:42.807Z,12
2017-09-12T14:09:50.893Z,12
2017-09-12T14:10:58.979Z,16
2017-09-12T14:12:07.072Z,16
2017-09-12T14:13:15.158Z,12
2017-09-12T14:14:23.242Z,16
2017-09-12T14:15:31.327Z,16
2017-09-12T14:16:39.411Z,16
2017-09-12T14:17:47.497Z,16
2017-09-12T14:18:55.596Z,16
2017-09-12T14:20:03.666Z,20
2017-09-12T14:21:11.773Z,20
2017-09-12T14:22:19.857Z,20
2017-09-12T14:23:27.942Z,20
2017-09-12T14:24:36.026Z,24
2017-09-12T14:25:44.110Z,20
2017-09-12T14:26:52.193Z,24
2017-09-12T14:28:00.277Z,20
2017-09-12T14:29:08.364Z,20
2017-09-12T14:30:16.448Z,12
2017-09-12T14:31:24.536Z,24
2017-09-12T14:32:32.626Z,20
2017-09-12T14:33:40.704Z,20
2017-09-12T14:34:48.791Z,20
2017-09-12T14:35:56.873Z,20
2017-09-12T14:37:04.958Z,20
2017-09-12T14:38:13.044Z,20
2017-09-12T14:39:21.127Z,20
2017-09-12T14:40:29.210Z,16
2017-09-12T14:41:37.298Z,16
2017-09-12T14:42:45.384Z,16
2017-09-12T14:43:53.471Z,16
2017-09-12T14:45:01.554Z,16
2017-09-12T14:46:09.634Z,20
2017-09-12T14:47:17.720Z,8
2017-09-12T14:48:25.985Z,4
2017-09-12T14:49:34.071Z,4
2017-09-12T14:50:42.165Z,12
2017-09-12T14:51:50.240Z,20
2017-09-12T14:52:58.332Z,20
2017-09-12T14:54:06.409Z,20
2017-09-12T14:55:14.495Z,16
2017-09-12T14:56:22.580Z,20
2017-09-12T14:57:30.679Z,16
2017-09-12T14:58:38.761Z,16
2017-09-12T14:59:46.843Z,16
2017-09-12T15:00:54.929Z,8
2017-09-12T15:02:03.013Z,12
2017-09-12T15:03:11.097Z,8
2017-09-12T15:04:19.181Z,12
2017-09-12T15:05:27.272Z,8
2017-09-12T15:06:35.352Z,12
2017-09-12T15:07:43.437Z,4
2017-09-12T15:08:51.528Z,8
2017-09-12T15:09:59.625Z,12
2017-09-12T15:11:07.695Z,12
2017-09-12T15:12:15.775Z,8
2017-09-12T15:13:23.886Z,8
2017-09-12T15:14:31.954Z,12
2017-09-12T15:15:40.038Z,12
2017-09-12T15:16:48.124Z,12
2017-09-12T15:17:56.209Z,12
2017-09-12T15:19:04.293Z,12
2017-09-12T15:20:12.378Z,8
2017-09-12T15:21:20.460Z,8
2017-09-12T15:22:28.589Z,12
2017-09-12T15:23:36.660Z,12
2017-09-12T15:24:44.753Z,8
2017-09-12T15:25:52.838Z,8
2017-09-12T15:27:00.923Z,8
2017-09-12T15:28:09.006Z,4
2017-09-12T15:29:17.099Z,8
2017-09-12T15:30:25.181Z,4
2017-09-12T15:31:33.269Z,8
2017-09-12T15:32:41.357Z,4
2017-09-12T15:33:49.440Z,4
2017-09-12T15:34:57.523Z,4
2017-09-12T15:36:05.614Z,8
2017-09-12T15:37:13.695Z,4
2017-09-12T15:38:21.780Z,4
2017-09-12T15:39:29.863Z,8
2017-09-12T15:40:37.949Z,8
2017-09-12T15:41:46.031Z,4
2017-09-12T15:42:54.121Z,4
2017-09-12T15:44:02.208Z,4
2017-09-12T15:45:10.295Z,4
2017-09-12T15:46:18.383Z,4
2017-09-12T15:47:26.459Z,4
2017-09-12T15:48:34.546Z,4
2017-09-12T15:49:42.630Z,8
2017-09-12T15:50:50.760Z,4
2017-09-12T15:51:58.810Z,8
2017-09-12T15:53:06.893Z,4
2017-09-12T15:54:14.984Z,4
2017-09-12T15:55:23.070Z,8
2017-09-12T15:56:31.155Z,4
2017-09-12T15:57:39.280Z,4
2017-09-12T15:58:47.325Z,4
2017-09-12T15:59:55.409Z,8
2017-09-12T16:01:03.495Z,8
2017-09-12T16:02:11.586Z,8
2017-09-12T16:03:19.678Z,4
2017-09-12T16:04:27.797Z,4
2017-09-12T16:05:35.884Z,4
2017-09-12T16:06:43.966Z,4
2017-09-12T16:07:52.049Z,4
2017-09-12T16:09:00.133Z,4
2017-09-12T16:10:08.224Z,4
2017-09-12T16:11:16.309Z,4
2017-09-12T16:12:24.390Z,4
2017-09-12T16:13:32.474Z,4
2017-09-12T16:14:40.559Z,4
2017-09-12T16:15:48.643Z,4
2017-09-12T16:16:56.730Z,4
2017-09-12T16:18:04.815Z,0
2017-09-12T16:19:12.899Z,0
2017-09-12T16:20:20.982Z,0
2017-09-12T16:21:29.065Z,4
2017-09-12T16:22:37.149Z,4
2017-09-12T16:23:45.232Z,4
2017-09-12T16:24:53.319Z,0
2017-09-12T16:26:01.403Z,4
2017-09-12T16:27:09.487Z,4
2017-09-12T16:28:17.572Z,0
2017-09-12T16:29:25.668Z,4
2017-09-12T16:30:33.764Z,0
2017-09-12T16:31:41.848Z,4
2017-09-12T16:32:49.932Z,4
2017-09-12T16:33:58.039Z,4
2017-09-12T16:35:06.101Z,0
2017-09-12T16:36:14.186Z,0
2017-09-12T16:37:22.268Z,0
2017-09-12T16:38:30.352Z,0
2017-09-12T16:39:38.437Z,4
2017-09-12T16:40:46.528Z,4
2017-09-12T16:41:54.610Z,4
2017-09-12T16:43:02.693Z,4
2017-09-12T16:44:10.796Z,4
2017-09-12T16:45:18.861Z,4
2017-09-12T16:46:26.945Z,4
2017-09-12T16:47:35.030Z,4
2017-09-12T16:48:43.113Z,4
2017-09-12T16:49:51.197Z,4
2017-09-12T16:50:59.283Z,0
2017-09-12T16:52:07.367Z,0
2017-09-12T16:53:15.464Z,0
2017-09-12T16:54:23.565Z,4
2017-09-12T16:55:31.631Z,0
2017-09-12T16:56:39.715Z,4
2017-09-12T16:57:47.799Z,4
2017-09-12T16:58:55.887Z,0
2017-09-12T17:00:03.970Z,4
2017-09-12T17:01:12.052Z,4
2017-09-12T17:02:20.137Z,0
2017-09-12T17:03:28.221Z,0
2017-09-12T17:04:36.304Z,0
2017-09-12T17:05:44.392Z,0
2017-09-12T17:06:52.474Z,0
2017-09-12T17:08:00.560Z,0
2017-09-12T17:09:08.643Z,4
2017-09-12T17:10:16.749Z,4
2017-09-12T17:11:24.812Z,4
2017-09-12T17:12:32.896Z,4
2017-09-12T17:13:40.981Z,4
2017-09-12T17:14:49.064Z,0
2017-09-12T17:15:57.149Z,0
2017-09-12T17:17:05.233Z,0
2017-09-12T17:18:13.318Z,0
2017-09-12T17:19:21.401Z,0
2017-09-12T17:20:29.487Z,0
2017-09-12T17:21:37.750Z,0
2017-09-12T17:22:45.862Z,0
2017-09-12T17:23:53.737Z,0
2017-09-12T17:25:01.824Z,0
2017-09-12T17:26:09.910Z,0
2017-09-12T17:27:17.991Z,0
2017-09-12T17:28:26.081Z,0
2017-09-12T17:29:34.167Z,0
2017-09-12T17:30:42.305Z,0
2017-09-12T17:31:50.331Z,0
2017-09-12T17:32:58.416Z,0
2017-09-12T17:34:06.497Z,0
2017-09-12T17:35:14.598Z,0
2017-09-12T17:36:22.665Z,0
2017-09-12T17:37:30.749Z,0
2017-09-12T17:38:38.835Z,0
2017-09-12T17:39:46.919Z,0
2017-09-12T17:40:55.021Z,0
2017-09-12T17:42:03.088Z,0
2017-09-12T17:43:11.169Z,0
2017-09-12T17:44:19.254Z,0
2017-09-12T17:45:27.341Z,0
2017-09-12T17:46:35.424Z,0
2017-09-12T17:47:43.513Z,0
2017-09-12T17:48:51.594Z,0
2017-09-12T17:49:59.684Z,0
2017-09-12T17:51:07.762Z,0
2017-09-12T17:52:15.846Z,0
2017-09-12T17:53:23.931Z,0
2017-09-12T17:54:32.016Z,0
2017-09-12T17:55:40.099Z,0
2017-09-12T17:56:48.184Z,0
2017-09-12T17:57:56.268Z,0
2017-09-12T17:59:04.354Z,0
2017-09-12T18:00:12.441Z,0
2017-09-12T18:01:20.527Z,0
2017-09-12T18:02:28.611Z,0
2017-09-12T18:03:36.694Z,0
2017-09-12T18:04:44.779Z,0
2017-09-12T18:05:52.860Z,0
2017-09-12T18:07:00.945Z,0
2017-09-12T18:08:09.029Z,0
2017-09-12T18:09:17.116Z,0
2017-09-12T18:10:25.200Z,0
2017-09-12T18:11:33.286Z,0
2017-09-12T18:12:41.371Z,0
2017-09-12T18:13:49.467Z,0
2017-09-12T18:14:57.551Z,0
2017-09-12T18:16:05.646Z,0
2017-09-12T18:17:13.805Z,0
2017-09-12T18:18:21.806Z,0
2017-09-12T18:19:29.908Z,0
2017-09-12T18:20:37.973Z,0
2017-09-12T18:21:46.058Z,0
2017-09-12T18:22:54.193Z,0
2017-09-12T18:24:02.323Z,0
2017-09-12T18:25:10.398Z,0
2017-09-12T18:26:18.483Z,0
2017-09-12T18:27:26.581Z,0
2017-09-12T18:28:34.657Z,0
2017-09-12T18:29:42.741Z,0
2017-09-12T18:30:50.825Z,0
2017-09-12T18:31:58.909Z,0
2017-09-12T18:33:06.995Z,0
2017-09-12T18:34:15.079Z,0
2017-09-12T18:35:23.165Z,0
2017-09-12T18:36:31.259Z,0
2017-09-12T18:37:39.344Z,0
2017-09-12T18:38:47.428Z,0
2017-09-12T18:39:55.514Z,0
2017-09-12T18:41:03.599Z,0
2017-09-12T18:42:11.690Z,0
2017-09-12T18:43:19.774Z,0
2017-09-12T18:44:27.857Z,0
2017-09-12T18:45:36.015Z,0
2017-09-12T18:46:44.023Z,0
2017-09-12T18:47:52.113Z,0
2017-09-12T18:49:00.197Z,0
2017-09-12T18:50:08.281Z,0
2017-09-12T18:51:16.364Z,0
2017-09-12T18:52:24.449Z,0
2017-09-12T18:53:32.547Z,0
2017-09-12T18:54:40.632Z,0
2017-09-12T18:55:48.721Z,0
2017-09-12T18:56:56.828Z,0
2017-09-12T18:58:04.885Z,0
2017-09-12T18:59:12.970Z,0
2017-09-12T19:00:21.054Z,0
2017-09-12T19:01:29.145Z,0
2017-09-12T19:02:37.225Z,0
2017-09-12T19:03:45.407Z,0
2017-09-12T19:04:53.404Z,0
2017-09-12T19:06:01.493Z,0
2017-09-12T19:07:09.577Z,0
2017-09-12T19:08:17.662Z,0
2017-09-12T19:09:25.756Z,0
2017-09-12T19:10:33.828Z,0
2017-09-12T19:11:41.916Z,0
2017-09-12T19:12:50.007Z,0
2017-09-12T19:13:58.093Z,0
2017-09-12T19:15:06.198Z,0
2017-09-12T19:16:14.265Z,0
2017-09-12T19:17:22.352Z,0
2017-09-12T19:18:30.430Z,0
2017-09-12T19:19:38.525Z,0
2017-09-12T19:20:46.602Z,0
2017-09-12T19:21:54.688Z,0
2017-09-12T19:23:02.776Z,0
2017-09-12T19:24:10.867Z,0
2017-09-12T19:25:18.950Z,0
2017-09-12T19:26:27.034Z,0
2017-09-12T19:27:35.121Z,0
2017-09-12T19:28:43.208Z,0
2017-09-12T19:29:51.293Z,0
2017-09-12T19:30:59.380Z,0
2017-09-12T19:32:07.463Z,0
2017-09-12T19:33:15.618Z,0
2017-09-12T19:34:23.633Z,0
2017-09-12T19:35:31.721Z,0
2017-09-12T19:36:39.803Z,0
2017-09-12T19:37:47.887Z,0
2017-09-12T19:38:55.972Z,0
2017-09-12T19:40:04.058Z,0
2017-09-12T19:41:12.145Z,0
2017-09-12T19:42:20.230Z,0
2017-09-12T19:43:28.313Z,0
2017-09-12T19:44:36.413Z,0
2017-09-12T19:45:44.480Z,0
2017-09-12T19:46:52.581Z,0
2017-09-12T19:48:00.668Z,0
2017-09-12T19:49:08.745Z,0
2017-09-12T19:50:16.850Z,0
2017-09-12T19:51:24.915Z,0
2017-09-12T19:52:33.059Z,0
2017-09-12T19:53:41.078Z,0
2017-09-12T19:54:49.162Z,0
2017-09-12T19:55:57.263Z,0
2017-09-12T19:57:05.332Z,0
2017-09-12T19:58:13.434Z,0
2017-09-12T19:59:21.717Z,0
2017-09-12T20:00:30.221Z,0
2017-09-12T20:01:37.805Z,0
2017-09-12T20:02:45.874Z,0
2017-09-12T20:03:53.959Z,0
2017-09-12T20:05:02.120Z,0
2017-09-12T20:06:10.130Z,0
2017-09-12T20:07:18.228Z,0
2017-09-12T20:08:26.301Z,0
2017-09-12T20:09:34.384Z,0
2017-09-12T20:10:42.502Z,0
2017-09-12T20:11:50.575Z,0
2017-09-12T20:12:58.656Z,0
2017-09-12T20:14:06.741Z,0
2017-09-12T20:15:14.822Z,0
2017-09-12T20:16:22.907Z,0
2017-09-12T20:17:30.993Z,0
2017-09-12T20:18:39.078Z,0
2017-09-12T20:19:47.174Z,0
2017-09-12T20:20:55.249Z,0
2017-09-12T20:22:03.361Z,0
2017-09-12T20:23:11.441Z,0
2017-09-12T20:24:19.610Z,0
2017-09-12T20:25:27.878Z,0
2017-09-12T20:26:35.678Z,0
2017-09-12T20:27:43.766Z,0
2017-09-12T20:28:51.849Z,0
2017-09-12T20:29:59.935Z,0
2017-09-12T20:31:08.092Z,0
2017-09-12T20:32:16.108Z,0
2017-09-12T20:33:24.191Z,0
2017-09-12T20:34:32.285Z,0
2017-09-12T20:35:40.368Z,0
2017-09-12T20:36:48.447Z,0
2017-09-12T20:37:56.534Z,0
2017-09-12T20:39:04.647Z,0
2017-09-12T20:40:12.721Z,0
2017-09-12T20:41:20.805Z,0
2017-09-12T20:42:28.924Z,0
2017-09-12T20:43:36.994Z,0
2017-09-12T20:44:45.081Z,0
2017-09-12T20:45:53.249Z,0
2017-09-12T20:47:01.257Z,0
2017-09-12T20:48:09.339Z,0
2017-09-12T20:49:17.428Z,0
2017-09-12T20:50:25.514Z,28
2017-09-12T20:51:33.603Z,0
2017-09-12T20:52:41.686Z,0
2017-09-12T20:53:49.773Z,0
2017-09-12T20:54:57.858Z,0
2017-09-12T20:56:05.944Z,0
2017-09-12T20:57:14.030Z,0
2017-09-12T20:58:22.114Z,0
2017-09-12T20:59:30.204Z,0
2017-09-12T21:00:38.287Z,0
2017-09-12T21:01:46.375Z,0
2017-09-12T21:02:54.462Z,0
2017-09-12T21:04:02.548Z,0
2017-09-12T21:05:10.637Z,0
2017-09-12T21:06:18.740Z,0
2017-09-12T21:07:26.809Z,0
2017-09-12T21:08:34.894Z,0
2017-09-12T21:09:42.993Z,0
2017-09-12T21:10:51.067Z,0
2017-09-12T21:11:59.154Z,0
2017-09-12T21:13:07.240Z,0
2017-09-12T21:14:15.488Z,0
2017-09-12T21:15:23.442Z,0
2017-09-12T21:16:31.504Z,0
2017-09-12T21:17:39.659Z,0
2017-09-12T21:18:47.672Z,0
2017-09-12T21:19:55.773Z,0
2017-09-12T21:21:03.845Z,0
2017-09-12T21:22:12.010Z,0
2017-09-12T21:23:20.093Z,0
2017-09-12T21:24:28.180Z,0
2017-09-12T21:25:36.267Z,0
2017-09-12T21:26:44.354Z,0